createdAt,value
2019-05-18T09:14:38.000Z,49.68
2019-05-18T09:19:10.000Z,49.20
2019-05-18T09:23:59.000Z,49.14
2019-05-18T09:28:47.000Z,49.17
2019-05-18T09:33:36.000Z,48.00
2019-05-18T09:38:25.000Z,48.91
2019-05-18T09:43:13.000Z,47.85
2019-05-18T09:48:04.000Z,47.59
2019-05-18T09:52:49.000Z,47.36
2019-05-18T09:57:37.000Z,47.60
2019-05-18T10:02:26.000Z,47.32
2019-05-18T10:07:15.000Z,47.02
2019-05-18T10:12:03.000Z,46.71
2019-05-18T10:16:52.000Z,47.37
2019-05-18T10:21:40.000Z,47.34
2019-05-18T10:26:30.000Z,45.97
2019-05-18T10:31:17.000Z,46.20
2019-05-18T10:36:05.000Z,46.16
2019-05-18T10:40:54.000Z,45.94
2019-05-18T10:45:42.000Z,45.82
2019-05-18T10:50:31.000Z,45.88
2019-05-18T10:55:19.000Z,45.77
2019-05-18T11:00:08.000Z,45.36
2019-05-18T11:04:59.000Z,45.10
2019-05-18T11:09:45.000Z,45.41
2019-05-18T11:14:34.000Z,43.87
2019-05-18T11:19:22.000Z,44.38
2019-05-18T11:24:10.000Z,44.67
2019-05-18T11:28:59.000Z,44.37
2019-05-18T11:33:49.000Z,43.36
2019-05-18T11:38:35.000Z,42.71
2019-05-18T11:43:23.000Z,42.76
2019-05-18T11:48:12.000Z,43.16
2019-05-18T11:53:01.000Z,42.56
2019-05-18T11:57:49.000Z,42.74
2019-05-18T12:02:38.000Z,42.56
2019-05-18T12:07:26.000Z,41.44
2019-05-18T12:12:15.000Z,41.42
2019-05-18T12:17:04.000Z,40.03
2019-05-18T12:21:52.000Z,39.54
2019-05-18T12:26:40.000Z,39.40
2019-05-18T12:31:29.000Z,39.48
2019-05-18T12:36:17.000Z,39.80
2019-05-18T12:41:07.000Z,38.74
2019-05-18T12:45:55.000Z,39.36
2019-05-18T12:50:44.000Z,38.32
2019-05-18T12:55:32.000Z,38.07
2019-05-18T13:00:22.000Z,37.70
2019-05-18T13:05:08.000Z,37.47
2019-05-18T13:09:56.000Z,38.40
2019-05-18T13:14:45.000Z,38.36
2019-05-18T13:19:34.000Z,38.74
2019-05-18T13:24:22.000Z,37.61
2019-05-18T13:29:11.000Z,37.38
2019-05-18T13:34:00.000Z,37.58
2019-05-18T13:38:46.000Z,38.16
2019-05-18T13:43:35.000Z,37.85
2019-05-18T13:48:23.000Z,38.43
2019-05-18T13:53:11.000Z,38.31
2019-05-18T13:58:00.000Z,37.15
2019-05-18T14:17:12.000Z,38.66
2019-05-18T14:22:01.000Z,39.58
2019-05-18T14:26:48.000Z,38.67
2019-05-18T14:31:36.000Z,39.13
2019-05-18T14:36:26.000Z,40.66
2019-05-18T14:41:12.000Z,41.24
2019-05-18T14:46:00.000Z,40.58
2019-05-18T14:50:53.000Z,41.11
2019-05-18T14:55:36.000Z,40.64
2019-05-18T15:00:27.000Z,41.31
2019-05-18T15:05:10.000Z,40.24
2019-05-18T15:09:58.000Z,41.74
2019-05-18T15:14:47.000Z,42.58
2019-05-18T15:19:33.000Z,44.00
2019-05-18T15:24:21.000Z,45.36
2019-05-18T15:29:09.000Z,47.08
2019-05-18T15:33:57.000Z,47.64
2019-05-18T15:38:46.000Z,47.66
2019-05-18T15:43:34.000Z,47.56
2019-05-18T15:48:24.000Z,46.69
2019-05-18T15:53:12.000Z,46.96
2019-05-18T15:58:00.000Z,47.10
2019-05-18T16:02:45.000Z,47.45
2019-05-18T16:07:34.000Z,47.62
2019-05-18T16:12:22.000Z,48.12
2019-05-18T16:17:11.000Z,48.21
2019-05-18T16:21:59.000Z,48.03
2019-05-18T16:26:48.000Z,47.89
2019-05-18T16:31:36.000Z,47.98
2019-05-18T16:36:24.000Z,48.28
2019-05-18T16:41:13.000Z,48.84
2019-05-18T16:46:01.000Z,49.06
2019-05-18T16:50:49.000Z,49.48
2019-05-18T16:55:38.000Z,49.84
2019-05-18T17:00:26.000Z,50.23
2019-05-18T17:05:16.000Z,50.64
2019-05-18T17:10:02.000Z,50.91
2019-05-18T17:14:50.000Z,51.41
2019-05-18T17:19:38.000Z,51.85
2019-05-18T17:24:26.000Z,52.34
2019-05-18T17:29:15.000Z,52.91
2019-05-18T17:34:03.000Z,53.31
2019-05-18T17:38:51.000Z,53.50
2019-05-18T17:43:39.000Z,54.05
2019-05-18T17:48:28.000Z,54.28
2019-05-18T17:53:16.000Z,54.53
2019-05-18T17:58:04.000Z,54.84
2019-05-18T18:02:52.000Z,55.26
2019-05-18T18:07:40.000Z,55.24
2019-05-18T18:12:28.000Z,55.82
2019-05-18T18:17:17.000Z,55.96
2019-05-18T18:22:03.000Z,55.87
2019-05-18T18:26:51.000Z,55.96
2019-05-18T18:31:39.000Z,55.93
2019-05-18T18:36:27.000Z,56.26
2019-05-18T18:41:15.000Z,56.24
2019-05-18T18:46:03.000Z,56.19
2019-05-18T18:50:51.000Z,57.75
2019-05-18T18:55:39.000Z,58.40
2019-05-18T19:00:29.000Z,60.17
2019-05-18T19:05:16.000Z,61.67
2019-05-18T19:10:04.000Z,62.25
2019-05-18T19:14:52.000Z,63.24
2019-05-18T19:19:40.000Z,63.85
2019-05-18T19:24:26.000Z,64.48
2019-05-18T19:29:14.000Z,65.57
2019-05-18T19:34:03.000Z,66.65
2019-05-18T19:38:50.000Z,67.91
2019-05-18T19:43:37.000Z,69.11
2019-05-18T19:48:24.000Z,68.95
2019-05-18T19:53:12.000Z,68.55
2019-05-18T19:57:59.000Z,68.31
2019-05-18T20:02:47.000Z,68.93
2019-05-18T20:07:34.000Z,68.56
2019-05-18T20:12:21.000Z,68.93
2019-05-18T20:17:09.000Z,70.38
2019-05-18T20:21:56.000Z,70.63
2019-05-18T20:26:44.000Z,71.75
2019-05-18T20:31:31.000Z,72.06
2019-05-18T20:36:18.000Z,71.62
2019-05-18T20:41:05.000Z,72.77
2019-05-18T20:45:53.000Z,71.97
2019-05-18T20:50:40.000Z,73.46
2019-05-18T20:55:28.000Z,74.18
2019-05-18T21:00:15.000Z,74.36
2019-05-18T21:05:02.000Z,75.44
2019-05-18T21:09:50.000Z,75.21
2019-05-18T21:14:37.000Z,74.55
2019-05-18T21:19:24.000Z,74.88
2019-05-18T21:24:12.000Z,76.21
2019-05-18T21:28:59.000Z,76.31
2019-05-18T21:33:46.000Z,76.57
2019-05-18T21:38:34.000Z,76.82
2019-05-18T21:43:21.000Z,76.63
2019-05-18T21:48:08.000Z,76.63
2019-05-18T21:52:55.000Z,76.83
2019-05-18T21:57:43.000Z,77.99
2019-05-18T22:02:30.000Z,78.61
2019-05-18T22:07:17.000Z,77.52
2019-05-18T22:12:05.000Z,78.32
2019-05-18T22:16:52.000Z,79.17
2019-05-18T22:21:40.000Z,78.51
2019-05-18T22:26:27.000Z,79.40
2019-05-18T22:31:14.000Z,79.65
2019-05-18T22:36:02.000Z,79.78
2019-05-18T22:40:49.000Z,79.90
2019-05-18T22:45:36.000Z,80.17
2019-05-18T22:55:09.000Z,81.38
2019-05-18T22:59:56.000Z,81.75
2019-05-18T23:04:44.000Z,82.14
2019-05-18T23:09:31.000Z,82.68
2019-05-18T23:14:18.000Z,82.98
2019-05-18T23:19:05.000Z,83.49
2019-05-18T23:23:52.000Z,83.41
2019-05-18T23:28:41.000Z,83.61
2019-05-18T23:33:27.000Z,84.08
2019-05-18T23:38:14.000Z,83.99
2019-05-18T23:43:01.000Z,84.10
2019-05-18T23:47:49.000Z,83.50
2019-05-18T23:52:36.000Z,84.07
2019-05-18T23:57:24.000Z,84.62
